createdAt,value
2018-04-11T00:01:12.170Z,17.14
2018-04-11T00:07:13.074Z,19.31
2018-04-11T00:11:13.877Z,20.01
2018-04-11T00:17:14.688Z,20.28
2018-04-11T00:21:15.573Z,20.24
2018-04-11T00:23:16.203Z,20.87
2018-04-11T00:27:17.002Z,20.42
2018-04-11T00:33:17.725Z,18.96
2018-04-11T00:37:18.596Z,19.38
2018-04-11T00:43:19.300Z,19.21
2018-04-11T00:49:20.146Z,17.89
2018-04-11T00:53:20.965Z,17.97
2018-04-11T00:59:21.747Z,17.71
2018-04-11T01:03:22.583Z,17.21
2018-04-11T01:09:23.315Z,14.76
2018-04-11T01:15:24.530Z,15.07
2018-04-11T01:19:25.383Z,15.31
2018-04-11T01:25:26.098Z,14.31
2018-04-11T01:29:26.803Z,14.55
2018-04-11T01:31:27.607Z,14.38
2018-04-11T01:35:28.298Z,13.5
2018-04-11T01:41:29.146Z,15.71
2018-04-11T01:45:30.002Z,15.75
2018-04-11T01:51:30.656Z,18.78
2018-04-11T01:57:31.547Z,19.03
2018-04-11T02:01:32.291Z,19.52
2018-04-11T02:07:33.003Z,25.04
2018-04-11T02:11:33.802Z,26.18
2018-04-11T02:17:34.639Z,29.97
2018-04-11T02:23:35.409Z,25.91
2018-04-11T02:27:36.210Z,25.02
2018-04-11T02:33:36.971Z,27.32
2018-04-11T02:37:37.833Z,27.89
2018-04-11T02:39:38.810Z,28.02
2018-04-11T02:43:39.639Z,28.34
2018-04-11T02:49:40.420Z,27.99
2018-04-11T02:53:41.070Z,28.3
2018-04-11T02:59:42.002Z,28.93
2018-04-11T03:05:42.802Z,30.08
2018-04-11T03:09:43.727Z,28.34
2018-04-11T03:15:44.543Z,26.83
2018-04-11T03:19:45.325Z,28.04
2018-04-11T03:25:46.014Z,27.08
2018-04-11T03:31:46.864Z,24.41
2018-04-11T03:35:47.638Z,24.4
2018-04-11T03:41:48.535Z,28.31
2018-04-11T03:45:49.382Z,27.73
2018-04-11T03:47:50.267Z,28.37
2018-04-11T03:51:51.105Z,28.27
2018-04-11T03:57:51.991Z,28.56
2018-04-11T04:01:52.759Z,30.2
2018-04-11T04:07:53.503Z,27.4
2018-04-11T04:13:54.297Z,25.35
2018-04-11T04:17:55.572Z,25.29
2018-04-11T04:23:56.276Z,28.25
2018-04-11T04:27:57.140Z,27.81
2018-04-11T04:33:57.957Z,29.9
2018-04-11T04:39:58.880Z,29.24
2018-04-11T04:43:59.692Z,30.25
2018-04-11T04:50:00.535Z,27.63
2018-04-11T04:54:01.241Z,29.58
2018-04-11T04:56:02.256Z,29.44
2018-04-11T05:00:03.127Z,29.56
2018-04-11T05:06:03.886Z,31.77
2018-04-11T05:10:04.843Z,31.61
2018-04-11T05:16:05.872Z,34.69
2018-04-11T05:22:06.691Z,36.41
2018-04-11T05:26:07.457Z,37.49
2018-04-11T05:32:08.342Z,34.73
2018-04-11T05:36:09.081Z,35.57
2018-04-11T05:38:09.978Z,31.93
2018-04-11T05:42:10.717Z,34.87
2018-04-11T05:48:11.626Z,38.23
2018-04-11T05:52:12.526Z,38.54
2018-04-11T05:58:13.507Z,38.88
2018-04-11T06:02:14.283Z,39.83
2018-04-11T06:04:15.200Z,37.04
2018-04-11T06:08:15.931Z,36.53
2018-04-11T06:14:16.710Z,35.48
2018-04-11T06:18:17.753Z,35.68
2018-04-11T06:24:18.539Z,32.89
2018-04-11T06:30:19.591Z,34.91
2018-04-11T06:34:20.372Z,34.64
2018-04-11T06:40:21.121Z,38.13
2018-04-11T06:44:22.001Z,38.46
2018-04-11T06:50:22.797Z,39.56
2018-04-11T06:56:23.583Z,37.63
2018-04-11T07:00:24.727Z,37.15
2018-04-11T07:06:25.462Z,34.17
2018-04-11T07:10:26.376Z,34.88
2018-04-11T07:12:27.071Z,35.37
2018-04-11T07:16:27.883Z,34.13
2018-04-11T07:22:28.707Z,32.16
2018-04-11T07:26:29.604Z,31.52
2018-04-11T07:32:30.387Z,33.69
2018-04-11T07:38:31.177Z,34.32
2018-04-11T07:42:31.984Z,35.2
2018-04-11T07:48:32.811Z,31.42
2018-04-11T07:52:33.656Z,31.94
2018-04-11T07:54:34.467Z,31.91
2018-04-11T07:58:35.204Z,31.5
2018-04-11T08:04:35.983Z,27.77
2018-04-11T08:08:36.922Z,26.99
2018-04-11T08:14:37.596Z,26.82
2018-04-11T08:18:38.519Z,26.62
2018-04-11T08:20:39.142Z,23.72
2018-04-11T08:24:40.079Z,23.89
2018-04-11T08:30:40.805Z,19.65
2018-04-11T08:34:41.547Z,18.75
2018-04-11T08:40:42.455Z,23.96
2018-04-11T08:46:43.225Z,21.73
2018-04-11T08:50:44.048Z,20.89
2018-04-11T08:56:50.357Z,18.39
2018-04-11T09:00:51.124Z,18.83
2018-04-11T09:06:51.843Z,16.98
2018-04-11T09:12:52.687Z,14.43
2018-04-11T09:16:53.527Z,14.57
2018-04-11T09:22:54.291Z,7.81
2018-04-11T09:26:55.225Z,7.1
2018-04-11T09:28:55.860Z,6.45
2018-04-11T09:32:56.868Z,6.27
2018-04-11T09:38:57.514Z,6.13
2018-04-11T09:42:58.375Z,6.11
2018-04-11T09:48:59.165Z,6.93
2018-04-11T09:55:00.174Z,6.89
2018-04-11T09:59:00.800Z,6.26
2018-04-11T10:05:01.659Z,7.17
2018-04-11T10:09:02.657Z,6.78
2018-04-11T10:15:03.479Z,5.91
2018-04-11T10:21:04.211Z,7.19
2018-04-11T10:25:05.073Z,7.4
2018-04-11T10:31:05.826Z,6.65
2018-04-11T10:35:06.863Z,6.46
2018-04-11T10:37:07.650Z,8.98
2018-04-11T10:41:08.472Z,7.59
2018-04-11T10:47:09.351Z,7.32
2018-04-11T10:51:10.200Z,6.87
2018-04-11T10:57:10.940Z,7.67
2018-04-11T11:03:11.671Z,7.53
2018-04-11T11:07:12.634Z,7.52
2018-04-11T11:13:13.324Z,9.64
2018-04-11T11:17:14.057Z,9.39
2018-04-11T11:19:14.760Z,10.89
2018-04-11T11:23:15.569Z,10.2
2018-04-11T11:29:16.356Z,10.15
2018-04-11T11:33:17.198Z,9.21
2018-04-11T11:39:18.011Z,9.41
2018-04-11T11:43:18.813Z,8.85
2018-04-11T11:45:19.855Z,9.93
2018-04-11T11:49:20.679Z,9.09
2018-04-11T11:55:21.494Z,18.73
2018-04-11T11:59:22.334Z,15.89
2018-04-11T12:05:23.165Z,9.3
2018-04-11T12:11:23.904Z,12.05
2018-04-11T12:15:24.856Z,13.78
2018-04-11T12:21:25.649Z,11.6
2018-04-11T12:25:26.420Z,10.74
2018-04-11T12:27:27.183Z,10.53
2018-04-11T12:31:27.976Z,9.3
2018-04-11T12:37:28.697Z,10.15
2018-04-11T12:41:29.557Z,9.94
2018-04-11T12:47:30.324Z,11.74
2018-04-11T12:51:31.198Z,12.12
2018-04-11T12:53:31.914Z,11.84
2018-04-11T12:57:32.677Z,11.39
2018-04-11T13:03:33.551Z,10.59
2018-04-11T13:07:34.242Z,11.36
2018-04-11T13:13:35.059Z,11.17
2018-04-11T13:19:35.860Z,12.35
2018-04-11T13:23:36.687Z,12.68
2018-04-11T13:29:37.445Z,12.82
2018-04-11T13:33:38.279Z,11.8
2018-04-11T13:35:39.077Z,10.86
2018-04-11T13:39:39.926Z,9.17
2018-04-11T13:45:40.645Z,9.76
2018-04-11T13:49:41.472Z,9.37
2018-04-11T13:55:42.338Z,11.73
2018-04-11T14:01:43.094Z,11.57
2018-04-11T14:05:43.995Z,11.09
2018-04-11T14:11:44.896Z,10.19
2018-04-11T14:15:45.653Z,10.71
2018-04-11T14:21:46.517Z,11.55
2018-04-11T14:27:47.484Z,13.93
2018-04-11T14:31:48.197Z,13.51
2018-04-11T14:37:49.054Z,11.85
2018-04-11T14:41:49.803Z,11.88
2018-04-11T14:43:50.611Z,10.26
2018-04-11T14:47:51.381Z,9.42
2018-04-11T14:53:52.205Z,11.9
2018-04-11T14:57:53.005Z,14.42
2018-04-11T15:03:53.992Z,13.58
2018-04-11T15:09:54.802Z,14.58
2018-04-11T15:13:55.591Z,14.21
2018-04-11T15:19:56.399Z,8.58
2018-04-11T15:23:57.162Z,7.58
2018-04-11T15:29:58.034Z,5.82
2018-04-11T15:35:59.163Z,6.09
2018-04-11T15:40:00.135Z,5.93
2018-04-11T15:46:00.999Z,6.19
2018-04-11T15:50:01.838Z,5.89
2018-04-11T15:52:02.560Z,4.77
2018-04-11T15:56:03.302Z,4.88
2018-04-11T16:02:04.152Z,6.81
2018-04-11T16:06:05.057Z,6.48
2018-04-11T16:12:06.005Z,7.16
2018-04-11T16:18:06.796Z,8.36
2018-04-11T16:22:07.558Z,9.01
2018-04-11T16:28:08.427Z,9.55
2018-04-11T16:32:09.336Z,8.66
2018-04-11T16:34:10.117Z,8.7
2018-04-11T16:38:10.984Z,7.61
2018-04-11T16:44:11.719Z,11.4
2018-04-11T16:48:12.632Z,9.69
2018-04-11T16:54:13.415Z,10.78
2018-04-11T16:58:14.447Z,10.76
2018-04-11T17:00:15.397Z,9.79
2018-04-11T17:04:16.209Z,9.06
2018-04-11T17:10:16.896Z,10.49
2018-04-11T17:14:17.889Z,10.57
2018-04-11T17:20:18.618Z,11.77
2018-04-11T17:26:19.423Z,7.88
2018-04-11T17:30:20.793Z,8.03
2018-04-11T17:36:21.518Z,7.25
2018-04-11T17:40:22.365Z,7.44
2018-04-11T17:42:23.107Z,8.46
2018-04-11T17:46:23.968Z,8.03
2018-04-11T17:52:24.737Z,8.76
2018-04-11T17:56:25.725Z,9.05
2018-04-11T18:02:26.600Z,12.62
2018-04-11T18:08:27.979Z,12.29
2018-04-11T18:12:28.909Z,11.55
2018-04-11T18:18:29.628Z,10.61
2018-04-11T18:22:30.536Z,11.59
2018-04-11T18:28:31.254Z,10.72
2018-04-11T18:34:32.069Z,9.88
2018-04-11T18:38:32.898Z,9
2018-04-11T18:44:33.955Z,9.22
2018-04-11T18:48:35.076Z,9.39
2018-04-11T18:50:35.847Z,9.61
2018-04-11T18:54:36.670Z,9.52
2018-04-11T19:00:37.638Z,9.76
2018-04-11T19:04:38.554Z,9.01
2018-04-11T19:10:39.511Z,9.96
2018-04-11T19:16:40.211Z,9.55
2018-04-11T19:20:41.033Z,8.94
2018-04-11T19:26:41.858Z,11.91
2018-04-11T19:30:42.678Z,11.07
2018-04-11T19:36:43.466Z,12.86
2018-04-11T19:42:44.173Z,13.46
2018-04-11T19:46:44.872Z,15.77
2018-04-11T19:52:45.943Z,14.84
2018-04-11T19:56:46.732Z,13.51
2018-04-11T19:58:47.510Z,14.77
2018-04-11T20:02:48.262Z,13.86
2018-04-11T20:08:49.091Z,13.45
2018-04-11T20:12:49.905Z,14.49
2018-04-11T20:18:50.671Z,16.51
2018-04-11T20:24:51.668Z,17.8
2018-04-11T20:28:52.390Z,17.53
2018-04-11T20:34:53.192Z,21.19
2018-04-11T20:38:53.923Z,19.09
2018-04-11T20:40:54.949Z,18.56
2018-04-11T20:44:55.746Z,18.61
2018-04-11T20:50:56.609Z,18.39
2018-04-11T20:54:57.417Z,18.26
2018-04-11T21:00:58.054Z,19.08
2018-04-11T21:04:59.450Z,19.74
2018-04-11T21:07:00.192Z,19.22
2018-04-11T21:11:00.973Z,19.38
2018-04-11T21:17:01.624Z,22.25
2018-04-11T21:21:02.409Z,19.91
2018-04-11T21:27:03.149Z,20.81
2018-04-11T21:33:04.000Z,20.7
2018-04-11T21:37:04.713Z,21.8
2018-04-11T21:43:05.574Z,22.25
2018-04-11T21:47:06.369Z,22.14
2018-04-11T21:49:07.074Z,22.58
2018-04-11T21:53:07.756Z,22.63
2018-04-11T21:59:08.517Z,20.6
2018-04-11T22:03:09.334Z,22.33
2018-04-11T22:09:10.089Z,23.04
2018-04-11T22:13:10.915Z,22.22
2018-04-11T22:15:11.971Z,20.45
2018-04-11T22:19:12.803Z,20.26
2018-04-11T22:25:13.589Z,24.71
2018-04-11T22:29:14.370Z,23.77
2018-04-11T22:35:15.140Z,21.66
2018-04-11T22:41:15.914Z,21.22
2018-04-11T22:45:16.984Z,20.73
2018-04-11T22:51:17.832Z,22.38
2018-04-11T22:55:18.567Z,22.58
2018-04-11T22:57:19.282Z,22.57
2018-04-11T23:01:20.150Z,22.17
2018-04-11T23:07:20.977Z,19.78
2018-04-11T23:11:21.846Z,19.29
2018-04-11T23:17:22.526Z,22.68
2018-04-11T23:23:23.405Z,22.17
2018-04-11T23:27:24.113Z,20.66
2018-04-11T23:33:24.876Z,20.88
2018-04-11T23:37:25.650Z,20.96
2018-04-11T23:43:26.465Z,21.59
2018-04-11T23:49:27.115Z,22.02
2018-04-11T23:53:28.016Z,19.88
2018-04-11T23:59:28.858Z,18.9
